Terminal Aerodrome Forecast
Issued by NWS Jackson, MS

Home | Current Version | Previous Version | Text Only | Print | Product List | Glossary On
Versions: 1 2 3 4 5 6 7 8 9 10 11 12 13 14
008
FTUS44 KJAN 290520
TAFMEI
TAF
KMEI 290520Z 2906/3006 00000KT P6SM SKC
     FM291000 00000KT 5SM BR SKC
     FM291400 34005KT P6SM SCT250
     FM292300 33005KT P6SM SCT250=

USA.gov is the U.S. government's official web portal to all federal, state and local government web resources and services.